Terminal Aerodrome Forecast
Issued by NWS

Home | Current Version | Previous Version | Text Only | Print | Product List | Glossary On
Versions: 1 2 3 4 5 6 7 8 9 10 11 12 13
916
FTUS45 KPSR 250521
TAFBLH
TAF
KBLH 250521Z 2506/2606 19011KT P6SM SKC
      TEMPO 2520/2524 19012G20KT=

USA.gov is the U.S. government's official web portal to all federal, state and local government web resources and services.